sensor_id;sensor_type;location;lat;lon;timestamp;pressure;altitude;pressure_sealevel;temperature;humidity
6423;BME280;3244;42.708;23.288;2022-09-24T00:00:45;95401.91;;;8.14;nan
6423;BME280;3244;42.708;23.288;2022-09-24T00:03:17;95399.69;;;7.98;nan
6423;BME280;3244;42.708;23.288;2022-09-24T00:05:45;95397.66;;;8.16;nan
6423;BME280;3244;42.708;23.288;2022-09-24T00:08:13;95402.75;;;8.15;nan
6423;BME280;3244;42.708;23.288;2022-09-24T00:10:42;95401.28;;;8.03;nan
6423;BME280;3244;42.708;23.288;2022-09-24T00:13:11;95404.53;;;8.10;nan
6423;BME280;3244;42.708;23.288;2022-09-24T00:15:40;95403.75;;;8.06;nan
6423;BME280;3244;42.708;23.288;2022-09-24T00:18:09;95394.81;;;7.87;nan
6423;BME280;3244;42.708;23.288;2022-09-24T00:20:36;95390.16;;;7.64;nan
6423;BME280;3244;42.708;23.288;2022-09-24T00:23:03;95394.88;;;7.84;nan
6423;BME280;3244;42.708;23.288;2022-09-24T00:25:30;95390.81;;;7.74;nan
6423;BME280;3244;42.708;23.288;2022-09-24T00:28:15;95392.25;;;7.90;nan
6423;BME280;3244;42.708;23.288;2022-09-24T00:30:42;95397.16;;;7.96;nan
6423;BME280;3244;42.708;23.288;2022-09-24T00:33:11;95393.78;;;7.97;nan
6423;BME280;3244;42.708;23.288;2022-09-24T00:35:38;95395.28;;;8.07;nan
6423;BME280;3244;42.708;23.288;2022-09-24T00:38:06;95394.13;;;7.79;nan
6423;BME280;3244;42.708;23.288;2022-09-24T00:40:35;95399.69;;;7.48;nan
6423;BME280;3244;42.708;23.288;2022-09-24T00:43:21;95392.97;;;7.47;nan
6423;BME280;3244;42.708;23.288;2022-09-24T00:45:49;95386.66;;;7.19;nan
6423;BME280;3244;42.708;23.288;2022-09-24T00:48:18;95391.25;;;7.48;nan
6423;BME280;3244;42.708;23.288;2022-09-24T00:50:45;95389.16;;;7.73;nan
6423;BME280;3244;42.708;23.288;2022-09-24T00:53:14;95397.50;;;7.78;nan
6423;BME280;3244;42.708;23.288;2022-09-24T00:55:43;95389.97;;;7.75;nan
6423;BME280;3244;42.708;23.288;2022-09-24T00:58:11;95391.69;;;7.22;nan
6423;BME280;3244;42.708;23.288;2022-09-24T01:00:39;95382.53;;;7.15;nan
6423;BME280;3244;42.708;23.288;2022-09-24T01:03:11;95385.41;;;7.44;nan
6423;BME280;3244;42.708;23.288;2022-09-24T01:05:40;95377.75;;;7.50;nan
6423;BME280;3244;42.708;23.288;2022-09-24T01:08:10;95376.78;;;7.58;nan
6423;BME280;3244;42.708;23.288;2022-09-24T01:10:48;95379.22;;;7.64;nan
6423;BME280;3244;42.708;23.288;2022-09-24T01:13:30;95377.25;;;7.78;nan
6423;BME280;3244;42.708;23.288;2022-09-24T01:16:02;95379.75;;;7.81;nan
6423;BME280;3244;42.708;23.288;2022-09-24T01:18:36;95379.78;;;7.78;nan
6423;BME280;3244;42.708;23.288;2022-09-24T01:21:17;95384.47;;;7.51;nan
6423;BME280;3244;42.708;23.288;2022-09-24T01:24:02;95380.41;;;6.88;nan
6423;BME280;3244;42.708;23.288;2022-09-24T01:26:47;95382.25;;;6.75;nan
6423;BME280;3244;42.708;23.288;2022-09-24T01:29:28;95378.94;;;7.28;nan
6423;BME280;3244;42.708;23.288;2022-09-24T01:31:59;95376.03;;;7.53;nan
6423;BME280;3244;42.708;23.288;2022-09-24T01:34:35;95380.78;;;7.18;nan
6423;BME280;3244;42.708;23.288;2022-09-24T01:37:05;95374.03;;;7.19;nan
6423;BME280;3244;42.708;23.288;2022-09-24T01:39:33;95381.28;;;7.40;nan
6423;BME280;3244;42.708;23.288;2022-09-24T01:42:02;95375.91;;;7.60;nan
6423;BME280;3244;42.708;23.288;2022-09-24T01:44:31;95384.56;;;7.45;nan
6423;BME280;3244;42.708;23.288;2022-09-24T01:46:59;95386.84;;;7.61;nan
6423;BME280;3244;42.708;23.288;2022-09-24T01:49:26;95388.47;;;7.65;nan
6423;BME280;3244;42.708;23.288;2022-09-24T01:51:56;95389.38;;;7.61;nan
6423;BME280;3244;42.708;23.288;2022-09-24T01:54:28;95389.53;;;7.50;nan
6423;BME280;3244;42.708;23.288;2022-09-24T01:57:02;95389.78;;;7.36;nan
6423;BME280;3244;42.708;23.288;2022-09-24T01:59:37;95387.09;;;7.45;nan
6423;BME280;3244;42.708;23.288;2022-09-24T02:02:09;95392.88;;;7.52;nan
6423;BME280;3244;42.708;23.288;2022-09-24T02:04:40;95399.84;;;7.39;nan
6423;BME280;3244;42.708;23.288;2022-09-24T02:07:11;95405.09;;;7.27;nan
6423;BME280;3244;42.708;23.288;2022-09-24T02:09:42;95400.13;;;7.21;nan
6423;BME280;3244;42.708;23.288;2022-09-24T02:12:11;95399.69;;;6.93;nan
6423;BME280;3244;42.708;23.288;2022-09-24T02:14:44;95415.69;;;6.94;nan
6423;BME280;3244;42.708;23.288;2022-09-24T02:17:13;95407.34;;;6.89;nan
6423;BME280;3244;42.708;23.288;2022-09-24T02:19:41;95409.66;;;7.04;nan
6423;BME280;3244;42.708;23.288;2022-09-24T02:22:09;95415.78;;;6.88;nan
6423;BME280;3244;42.708;23.288;2022-09-24T02:24:43;95409.94;;;6.84;nan
6423;BME280;3244;42.708;23.288;2022-09-24T02:27:11;95415.94;;;6.75;nan
6423;BME280;3244;42.708;23.288;2022-09-24T02:29:38;95420.78;;;6.92;nan
6423;BME280;3244;42.708;23.288;2022-09-24T02:32:08;95424.00;;;7.02;nan
6423;BME280;3244;42.708;23.288;2022-09-24T02:34:38;95422.25;;;7.07;nan
6423;BME280;3244;42.708;23.288;2022-09-24T02:37:06;95430.72;;;7.03;nan
6423;BME280;3244;42.708;23.288;2022-09-24T02:39:33;95427.34;;;7.04;nan
6423;BME280;3244;42.708;23.288;2022-09-24T02:42:02;95429.91;;;7.01;nan
6423;BME280;3244;42.708;23.288;2022-09-24T02:44:29;95426.53;;;7.00;nan
6423;BME280;3244;42.708;23.288;2022-09-24T02:46:56;95439.41;;;6.83;nan
6423;BME280;3244;42.708;23.288;2022-09-24T02:49:25;95431.66;;;6.96;nan
6423;BME280;3244;42.708;23.288;2022-09-24T02:51:51;95434.88;;;7.07;nan
6423;BME280;3244;42.708;23.288;2022-09-24T02:54:18;95437.47;;;7.01;nan
6423;BME280;3244;42.708;23.288;2022-09-24T02:56:46;95444.72;;;6.62;nan
6423;BME280;3244;42.708;23.288;2022-09-24T02:59:13;95446.69;;;6.39;nan
6423;BME280;3244;42.708;23.288;2022-09-24T03:01:39;95456.94;;;6.24;nan
6423;BME280;3244;42.708;23.288;2022-09-24T03:04:06;95442.81;;;6.09;nan
6423;BME280;3244;42.708;23.288;2022-09-24T03:06:34;95449.22;;;6.39;nan
6423;BME280;3244;42.708;23.288;2022-09-24T03:09:02;95443.47;;;6.25;nan
6423;BME280;3244;42.708;23.288;2022-09-24T03:11:29;95449.53;;;6.08;nan
6423;BME280;3244;42.708;23.288;2022-09-24T03:13:57;95442.72;;;6.18;nan
6423;BME280;3244;42.708;23.288;2022-09-24T03:16:24;95439.41;;;6.14;nan
6423;BME280;3244;42.708;23.288;2022-09-24T03:18:51;95443.34;;;6.38;nan
6423;BME280;3244;42.708;23.288;2022-09-24T03:21:19;95445.69;;;6.52;nan
6423;BME280;3244;42.708;23.288;2022-09-24T03:23:48;95446.69;;;6.39;nan
6423;BME280;3244;42.708;23.288;2022-09-24T03:26:15;95450.09;;;6.35;nan
6423;BME280;3244;42.708;23.288;2022-09-24T03:28:43;95449.94;;;6.47;nan
6423;BME280;3244;42.708;23.288;2022-09-24T03:31:10;95450.97;;;6.31;nan
6423;BME280;3244;42.708;23.288;2022-09-24T03:33:37;95455.84;;;6.47;nan
6423;BME280;3244;42.708;23.288;2022-09-24T03:36:08;95456.78;;;6.39;nan
6423;BME280;3244;42.708;23.288;2022-09-24T03:38:35;95462.81;;;6.24;nan
6423;BME280;3244;42.708;23.288;2022-09-24T03:41:04;95457.63;;;6.41;nan
6423;BME280;3244;42.708;23.288;2022-09-24T03:43:32;95464.41;;;6.36;nan
6423;BME280;3244;42.708;23.288;2022-09-24T03:45:59;95458.53;;;6.34;nan
6423;BME280;3244;42.708;23.288;2022-09-24T03:48:26;95454.97;;;6.50;nan
6423;BME280;3244;42.708;23.288;2022-09-24T03:50:54;95471.13;;;6.35;nan
6423;BME280;3244;42.708;23.288;2022-09-24T03:53:21;95458.59;;;6.28;nan
6423;BME280;3244;42.708;23.288;2022-09-24T03:55:52;95466.09;;;6.35;nan
6423;BME280;3244;42.708;23.288;2022-09-24T03:58:21;95470.75;;;5.86;nan
6423;BME280;3244;42.708;23.288;2022-09-24T04:00:50;95468.59;;;5.42;nan
6423;BME280;3244;42.708;23.288;2022-09-24T04:03:17;95465.47;;;5.02;nan
6423;BME280;3244;42.708;23.288;2022-09-24T04:05:45;95475.63;;;4.90;nan
6423;BME280;3244;42.708;23.288;2022-09-24T04:08:12;95472.28;;;4.88;nan
6423;BME280;3244;42.708;23.288;2022-09-24T04:10:39;95475.69;;;4.73;nan
6423;BME280;3244;42.708;23.288;2022-09-24T04:13:05;95475.75;;;4.61;nan
6423;BME280;3244;42.708;23.288;2022-09-24T04:15:34;95472.97;;;5.17;nan
6423;BME280;3244;42.708;23.288;2022-09-24T04:18:01;95471.88;;;5.48;nan
6423;BME280;3244;42.708;23.288;2022-09-24T04:20:28;95465.81;;;5.71;nan
6423;BME280;3244;42.708;23.288;2022-09-24T04:22:56;95474.13;;;5.82;nan
6423;BME280;3244;42.708;23.288;2022-09-24T04:25:26;95474.03;;;5.96;nan
6423;BME280;3244;42.708;23.288;2022-09-24T04:27:56;95479.16;;;5.91;nan
6423;BME280;3244;42.708;23.288;2022-09-24T04:30:25;95485.66;;;6.13;nan
6423;BME280;3244;42.708;23.288;2022-09-24T04:32:53;95489.78;;;6.21;nan
6423;BME280;3244;42.708;23.288;2022-09-24T04:35:21;95485.50;;;6.29;nan
6423;BME280;3244;42.708;23.288;2022-09-24T04:37:49;95489.19;;;5.94;nan
6423;BME280;3244;42.708;23.288;2022-09-24T04:40:16;95498.59;;;5.72;nan
6423;BME280;3244;42.708;23.288;2022-09-24T04:42:43;95495.22;;;5.73;nan
6423;BME280;3244;42.708;23.288;2022-09-24T04:45:12;95493.84;;;5.31;nan
6423;BME280;3244;42.708;23.288;2022-09-24T04:47:40;95490.63;;;5.06;nan
6423;BME280;3244;42.708;23.288;2022-09-24T04:50:19;95492.31;;;5.07;nan
6423;BME280;3244;42.708;23.288;2022-09-24T04:52:46;95494.59;;;5.45;nan
6423;BME280;3244;42.708;23.288;2022-09-24T04:55:13;95499.16;;;6.08;nan
6423;BME280;3244;42.708;23.288;2022-09-24T04:57:40;95500.63;;;6.29;nan
6423;BME280;3244;42.708;23.288;2022-09-24T05:00:08;95493.72;;;6.44;nan
6423;BME280;3244;42.708;23.288;2022-09-24T05:02:39;95493.69;;;6.51;nan
6423;BME280;3244;42.708;23.288;2022-09-24T05:05:06;95487.69;;;6.61;nan
6423;BME280;3244;42.708;23.288;2022-09-24T05:07:34;95494.41;;;6.63;nan
6423;BME280;3244;42.708;23.288;2022-09-24T05:10:02;95491.28;;;7.09;nan
6423;BME280;3244;42.708;23.288;2022-09-24T05:12:29;95490.25;;;7.22;nan
6423;BME280;3244;42.708;23.288;2022-09-24T05:14:55;95487.63;;;7.31;nan
6423;BME280;3244;42.708;23.288;2022-09-24T05:17:22;95483.38;;;7.32;nan
6423;BME280;3244;42.708;23.288;2022-09-24T05:19:49;95485.66;;;7.48;nan
6423;BME280;3244;42.708;23.288;2022-09-24T05:22:16;95496.22;;;8.26;nan
6423;BME280;3244;42.708;23.288;2022-09-24T05:24:44;95494.56;;;8.71;nan
6423;BME280;3244;42.708;23.288;2022-09-24T05:27:10;95494.84;;;8.99;nan
6423;BME280;3244;42.708;23.288;2022-09-24T05:29:37;95496.94;;;9.20;nan
6423;BME280;3244;42.708;23.288;2022-09-24T05:32:05;95501.41;;;9.09;nan
6423;BME280;3244;42.708;23.288;2022-09-24T05:34:32;95503.81;;;9.53;nan
6423;BME280;3244;42.708;23.288;2022-09-24T05:37:00;95505.19;;;11.58;nan
6423;BME280;3244;42.708;23.288;2022-09-24T05:39:27;95503.28;;;12.92;nan
6423;BME280;3244;42.708;23.288;2022-09-24T05:41:56;95504.31;;;12.39;nan
6423;BME280;3244;42.708;23.288;2022-09-24T05:44:23;95498.91;;;11.69;nan
6423;BME280;3244;42.708;23.288;2022-09-24T05:46:50;95511.16;;;11.28;nan
6423;BME280;3244;42.708;23.288;2022-09-24T05:49:17;95514.31;;;10.77;nan
6423;BME280;3244;42.708;23.288;2022-09-24T05:51:46;95510.16;;;10.41;nan
6423;BME280;3244;42.708;23.288;2022-09-24T05:54:13;95512.34;;;10.56;nan
6423;BME280;3244;42.708;23.288;2022-09-24T05:56:40;95508.19;;;10.52;nan
6423;BME280;3244;42.708;23.288;2022-09-24T05:59:08;95518.03;;;10.64;nan
6423;BME280;3244;42.708;23.288;2022-09-24T06:01:35;95512.63;;;10.44;nan
6423;BME280;3244;42.708;23.288;2022-09-24T06:04:02;95511.38;;;10.28;nan
6423;BME280;3244;42.708;23.288;2022-09-24T06:06:31;95515.53;;;9.95;nan
6423;BME280;3244;42.708;23.288;2022-09-24T06:08:58;95518.97;;;9.57;nan
6423;BME280;3244;42.708;23.288;2022-09-24T06:11:25;95528.47;;;9.47;nan
6423;BME280;3244;42.708;23.288;2022-09-24T06:13:59;95525.00;;;9.51;nan
6423;BME280;3244;42.708;23.288;2022-09-24T06:16:31;95512.78;;;9.67;nan
6423;BME280;3244;42.708;23.288;2022-09-24T06:18:59;95522.22;;;9.99;nan
6423;BME280;3244;42.708;23.288;2022-09-24T06:21:25;95511.69;;;10.80;nan
6423;BME280;3244;42.708;23.288;2022-09-24T06:23:52;95515.72;;;12.78;nan
6423;BME280;3244;42.708;23.288;2022-09-24T06:26:19;95513.00;;;15.18;nan
6423;BME280;3244;42.708;23.288;2022-09-24T06:28:46;95503.31;;;16.34;nan
6423;BME280;3244;42.708;23.288;2022-09-24T06:31:12;95512.75;;;17.19;nan
6423;BME280;3244;42.708;23.288;2022-09-24T06:33:40;95516.09;;;16.71;nan
6423;BME280;3244;42.708;23.288;2022-09-24T06:36:08;95514.59;;;17.48;nan
6423;BME280;3244;42.708;23.288;2022-09-24T06:38:35;95506.63;;;20.02;nan
6423;BME280;3244;42.708;23.288;2022-09-24T06:41:04;95502.00;;;21.73;nan
6423;BME280;3244;42.708;23.288;2022-09-24T06:43:31;95496.19;;;23.45;nan
6423;BME280;3244;42.708;23.288;2022-09-24T06:45:59;95495.94;;;22.92;nan
6423;BME280;3244;42.708;23.288;2022-09-24T06:48:28;95492.63;;;23.01;nan
6423;BME280;3244;42.708;23.288;2022-09-24T06:50:56;95495.44;;;23.88;nan
6423;BME280;3244;42.708;23.288;2022-09-24T06:53:23;95575.56;;;24.79;nan
6423;BME280;3244;42.708;23.288;2022-09-24T12:08:54;95368.16;;;20.91;nan
6423;BME280;3244;42.708;23.288;2022-09-24T12:54:27;95353.63;;;21.75;nan
6423;BME280;3244;42.708;23.288;2022-09-24T19:05:47;95453.72;;;13.23;nan
6423;BME280;3244;42.708;23.288;2022-09-24T21:03:46;95395.25;;;11.46;nan
6423;BME280;3244;42.708;23.288;2022-09-24T21:06:15;95403.34;;;11.58;nan
6423;BME280;3244;42.708;23.288;2022-09-24T21:08:43;95405.88;;;11.32;nan
6423;BME280;3244;42.708;23.288;2022-09-24T21:11:12;95406.59;;;11.37;nan
6423;BME280;3244;42.708;23.288;2022-09-24T21:13:41;95412.06;;;11.51;nan
6423;BME280;3244;42.708;23.288;2022-09-24T21:16:09;95413.28;;;11.66;nan
6423;BME280;3244;42.708;23.288;2022-09-24T21:18:37;95416.63;;;11.40;nan
6423;BME280;3244;42.708;23.288;2022-09-24T21:21:08;95409.75;;;11.16;nan
6423;BME280;3244;42.708;23.288;2022-09-24T21:23:36;95408.47;;;11.03;nan
6423;BME280;3244;42.708;23.288;2022-09-24T21:26:08;95406.72;;;11.05;nan
6423;BME280;3244;42.708;23.288;2022-09-24T21:28:35;95409.41;;;11.28;nan
6423;BME280;3244;42.708;23.288;2022-09-24T21:31:02;95410.97;;;11.32;nan
6423;BME280;3244;42.708;23.288;2022-09-24T21:33:30;95407.06;;;11.48;nan
6423;BME280;3244;42.708;23.288;2022-09-24T21:35:58;95410.78;;;11.65;nan
6423;BME280;3244;42.708;23.288;2022-09-24T21:38:27;95402.53;;;11.58;nan
6423;BME280;3244;42.708;23.288;2022-09-24T21:40:54;95397.47;;;11.56;nan
6423;BME280;3244;42.708;23.288;2022-09-24T21:43:23;95401.34;;;11.14;nan
6423;BME280;3244;42.708;23.288;2022-09-24T21:45:51;95402.00;;;11.20;nan
6423;BME280;3244;42.708;23.288;2022-09-24T21:48:20;95395.97;;;11.23;nan
6423;BME280;3244;42.708;23.288;2022-09-24T21:50:47;95403.47;;;11.00;nan
6423;BME280;3244;42.708;23.288;2022-09-24T21:53:14;95409.56;;;10.35;nan
6423;BME280;3244;42.708;23.288;2022-09-24T21:55:44;95404.06;;;10.50;nan
6423;BME280;3244;42.708;23.288;2022-09-24T21:58:11;95408.44;;;10.75;nan
6423;BME280;3244;42.708;23.288;2022-09-24T22:00:38;95403.38;;;10.75;nan
6423;BME280;3244;42.708;23.288;2022-09-24T22:03:05;95406.06;;;10.98;nan
6423;BME280;3244;42.708;23.288;2022-09-24T22:05:34;95404.22;;;11.03;nan
6423;BME280;3244;42.708;23.288;2022-09-24T22:08:08;95404.22;;;11.31;nan
6423;BME280;3244;42.708;23.288;2022-09-24T22:10:37;95401.78;;;11.54;nan
6423;BME280;3244;42.708;23.288;2022-09-24T22:13:06;95399.63;;;11.69;nan
6423;BME280;3244;42.708;23.288;2022-09-24T22:15:34;95405.97;;;11.29;nan
6423;BME280;3244;42.708;23.288;2022-09-24T22:18:01;95404.97;;;11.07;nan
6423;BME280;3244;42.708;23.288;2022-09-24T22:20:28;95407.25;;;11.14;nan
6423;BME280;3244;42.708;23.288;2022-09-24T22:22:55;95415.41;;;11.25;nan
6423;BME280;3244;42.708;23.288;2022-09-24T22:25:22;95418.19;;;11.18;nan
6423;BME280;3244;42.708;23.288;2022-09-24T22:27:48;95407.34;;;11.13;nan
6423;BME280;3244;42.708;23.288;2022-09-24T22:30:17;95404.88;;;11.10;nan
6423;BME280;3244;42.708;23.288;2022-09-24T22:32:43;95411.34;;;11.20;nan
6423;BME280;3244;42.708;23.288;2022-09-24T22:35:10;95406.06;;;11.26;nan
6423;BME280;3244;42.708;23.288;2022-09-24T22:37:54;95403.66;;;11.21;nan
6423;BME280;3244;42.708;23.288;2022-09-24T22:40:21;95400.69;;;11.09;nan
6423;BME280;3244;42.708;23.288;2022-09-24T22:42:48;95399.59;;;10.88;nan
6423;BME280;3244;42.708;23.288;2022-09-24T22:45:17;95401.81;;;10.99;nan
6423;BME280;3244;42.708;23.288;2022-09-24T22:47:43;95400.97;;;10.98;nan
6423;BME280;3244;42.708;23.288;2022-09-24T22:50:12;95395.22;;;10.91;nan
6423;BME280;3244;42.708;23.288;2022-09-24T22:52:38;95398.38;;;11.00;nan
6423;BME280;3244;42.708;23.288;2022-09-24T22:55:06;95406.69;;;10.77;nan
6423;BME280;3244;42.708;23.288;2022-09-24T22:57:33;95407.09;;;10.63;nan
6423;BME280;3244;42.708;23.288;2022-09-24T23:00:00;95414.44;;;10.72;nan
6423;BME280;3244;42.708;23.288;2022-09-24T23:02:28;95411.66;;;10.81;nan
6423;BME280;3244;42.708;23.288;2022-09-24T23:04:55;95407.88;;;10.95;nan
6423;BME280;3244;42.708;23.288;2022-09-24T23:07:22;95406.97;;;10.96;nan
6423;BME280;3244;42.708;23.288;2022-09-24T23:09:50;95412.38;;;10.86;nan
6423;BME280;3244;42.708;23.288;2022-09-24T23:12:16;95417.25;;;10.93;nan
6423;BME280;3244;42.708;23.288;2022-09-24T23:14:44;95412.38;;;10.86;nan
6423;BME280;3244;42.708;23.288;2022-09-24T23:17:10;95409.03;;;10.84;nan
6423;BME280;3244;42.708;23.288;2022-09-24T23:19:38;95420.19;;;10.79;nan
6423;BME280;3244;42.708;23.288;2022-09-24T23:22:14;95407.44;;;10.80;nan
6423;BME280;3244;42.708;23.288;2022-09-24T23:24:41;95397.09;;;10.86;nan
6423;BME280;3244;42.708;23.288;2022-09-24T23:27:08;95402.06;;;10.89;nan
6423;BME280;3244;42.708;23.288;2022-09-24T23:29:35;95410.03;;;10.79;nan
6423;BME280;3244;42.708;23.288;2022-09-24T23:32:02;95407.34;;;10.83;nan
6423;BME280;3244;42.708;23.288;2022-09-24T23:34:29;95400.69;;;10.79;nan
6423;BME280;3244;42.708;23.288;2022-09-24T23:36:57;95398.78;;;10.87;nan
6423;BME280;3244;42.708;23.288;2022-09-24T23:39:24;95403.22;;;10.50;nan
6423;BME280;3244;42.708;23.288;2022-09-24T23:41:51;95412.47;;;10.21;nan
6423;BME280;3244;42.708;23.288;2022-09-24T23:44:19;95404.97;;;10.48;nan
6423;BME280;3244;42.708;23.288;2022-09-24T23:46:46;95410.13;;;10.45;nan
6423;BME280;3244;42.708;23.288;2022-09-24T23:49:13;95406.22;;;10.01;nan
6423;BME280;3244;42.708;23.288;2022-09-24T23:51:40;95411.19;;;9.71;nan
6423;BME280;3244;42.708;23.288;2022-09-24T23:54:09;95409.28;;;9.45;nan
6423;BME280;3244;42.708;23.288;2022-09-24T23:56:36;95402.47;;;9.47;nan
6423;BME280;3244;42.708;23.288;2022-09-24T23:59:03;95397.47;;;9.78;nan
